Time;durP1;ratioP1;P1;durP2;ratioP2;P2;SDS_P1;SDS_P2;PMS_P1;PMS_P2;Temp;Humidity;BMP_temperature;BMP_pressure;BME280_temperature;BME280_humidity;BME280_pressure;Samples;Min_cycle;Max_cycle;Signal;HPM_P1;HPM_P2
2024/01/16 00:01:06;;;;;;;12.20;6.50;;;;;;;2.27;92.52;97857.81;79410;1295;3011484;-72
2024/01/16 00:03:34;;;;;;;15.50;6.90;;;;;;;1.95;94.21;97859.08;78849;1298;3051583;-71
2024/01/16 00:06:01;;;;;;;14.10;7.60;;;;;;;1.97;95.34;97852.92;79812;1295;3012925;-68
2024/01/16 00:08:27;;;;;;;15.40;6.80;;;;;;;1.96;95.76;97855.05;79609;1298;3011614;-69
2024/01/16 00:10:55;;;;;;;14.20;6.80;;;;;;;2.16;96.25;97855.59;78261;1298;3026607;-74
2024/01/16 00:13:21;;;;;;;16.30;7.30;;;;;;;2.47;94.56;97852.73;79744;1296;3012669;-69
2024/01/16 00:15:49;;;;;;;14.10;7.10;;;;;;;2.45;94.08;97846.12;79494;1296;3012510;-68
2024/01/16 00:18:17;;;;;;;13.30;7.10;;;;;;;2.29;94.18;97837.30;78721;1295;3052159;-66
2024/01/16 00:20:43;;;;;;;18.50;8.30;;;;;;;2.10;95.83;97827.23;79607;1295;3019295;-68
2024/01/16 00:23:10;;;;;;;14.90;8.60;;;;;;;2.02;97.04;97825.44;79640;1294;3011598;-69
2024/01/16 00:25:38;;;;;;;15.80;7.60;;;;;;;1.99;97.51;97817.81;78416;1295;3028742;-67
2024/01/16 00:28:05;;;;;;;14.10;6.80;;;;;;;2.31;97.20;97809.70;79504;1294;3013064;-66
2024/01/16 00:30:33;;;;;;;16.60;7.70;;;;;;;2.57;95.88;97810.77;79486;1298;3011842;-67
2024/01/16 00:33:02;;;;;;;16.50;7.90;;;;;;;2.52;95.29;97812.39;78297;1297;3051063;-68
2024/01/16 00:35:29;;;;;;;14.90;7.50;;;;;;;2.16;96.73;97824.48;79496;1298;3012953;-67
2024/01/16 00:37:56;;;;;;;16.20;7.90;;;;;;;2.09;97.78;97826.57;79520;1295;3011731;-66
2024/01/16 00:40:23;;;;;;;11.80;6.80;;;;;;;1.97;98.40;97833.74;78389;1294;3056730;-65
2024/01/16 00:42:50;;;;;;;12.30;6.30;;;;;;;2.15;98.87;97824.40;79726;1294;3012634;-69
2024/01/16 00:45:17;;;;;;;14.90;7.10;;;;;;;2.44;97.29;97820.11;79761;1296;3013482;-68
2024/01/16 00:47:44;;;;;;;15.80;6.70;;;;;;;2.21;97.29;97823.53;78532;1298;3025125;-66
2024/01/16 00:50:11;;;;;;;13.30;7.10;;;;;;;2.06;98.58;97820.35;79721;1298;3013605;-67
2024/01/16 00:52:38;;;;;;;14.00;7.60;;;;;;;2.00;99.57;97822.05;79907;1298;3011791;-66
2024/01/16 00:55:06;;;;;;;18.20;7.50;;;;;;;2.01;99.98;97817.18;78404;1298;3028183;-65
2024/01/16 00:57:33;;;;;;;13.50;7.30;;;;;;;2.28;99.78;97818.88;79824;1295;3013325;-65
2024/01/16 00:59:59;;;;;;;15.90;6.90;;;;;;;2.35;99.40;97816.57;79726;1301;3011609;-68
2024/01/16 01:02:27;;;;;;;12.30;7.40;;;;;;;2.36;99.41;97806.55;78428;1298;3026649;-67
2024/01/16 01:04:54;;;;;;;11.30;6.50;;;;;;;2.46;99.12;97805.11;79720;1297;3013005;-67
2024/01/16 01:07:20;;;;;;;15.30;8.40;;;;;;;2.42;99.14;97801.52;79641;1297;3013047;-64
2024/01/16 01:09:48;;;;;;;14.50;6.80;;;;;;;2.34;99.59;97805.23;78405;1292;3026203;-68
2024/01/16 01:12:15;;;;;;;11.90;6.10;;;;;;;2.58;99.34;97807.61;79758;1292;3012940;-67
2024/01/16 01:14:41;;;;;;;12.50;7.10;;;;;;;2.89;97.96;97803.99;79693;1294;3011750;-66
2024/01/16 01:17:09;;;;;;;14.40;7.40;;;;;;;2.95;97.51;97799.30;78711;1300;3026289;-66
2024/01/16 01:19:35;;;;;;;21.90;7.70;;;;;;;2.92;97.03;97799.84;79687;1298;3013102;-67
2024/01/16 01:22:02;;;;;;;18.70;7.70;;;;;;;2.74;97.68;97802.55;79694;1294;3011829;-68
2024/01/16 01:24:30;;;;;;;15.90;8.00;;;;;;;2.58;98.77;97799.45;78523;1294;3026372;-67
2024/01/16 01:26:57;;;;;;;14.20;6.60;;;;;;;2.59;99.65;97790.27;79714;1292;3012854;-67
2024/01/16 01:29:24;;;;;;;13.90;6.80;;;;;;;3.15;98.46;97792.14;79747;1292;3011930;-65
2024/01/16 01:31:52;;;;;;;20.70;7.10;;;;;;;3.53;96.35;97787.21;78445;1293;3053605;-64
2024/01/16 01:34:19;;;;;;;16.00;7.60;;;;;;;3.34;95.61;97795.42;79785;1292;3013534;-66
2024/01/16 01:36:45;;;;;;;15.00;8.00;;;;;;;3.15;96.85;97791.83;79630;1298;3011874;-65
2024/01/16 01:39:13;;;;;;;15.00;7.90;;;;;;;3.01;97.41;97793.63;78615;1292;3027414;-66
2024/01/16 01:41:40;;;;;;;19.30;7.00;;;;;;;2.79;98.47;97792.41;79766;1295;3013185;-67
2024/01/16 01:44:06;;;;;;;17.80;7.50;;;;;;;3.08;98.19;97789.57;79565;1292;3011792;-63
2024/01/16 01:46:34;;;;;;;13.40;7.90;;;;;;;3.45;96.19;97779.89;78581;1295;3024761;-65
2024/01/16 01:49:01;;;;;;;16.70;7.60;;;;;;;3.57;94.71;97776.55;79654;1298;3013005;-66
2024/01/16 01:51:28;;;;;;;12.70;7.20;;;;;;;3.35;94.86;97777.14;79653;1294;3011669;-65
2024/01/16 01:53:57;;;;;;;20.90;7.90;;;;;;;3.25;95.07;97778.61;78433;1298;3026281;-66
2024/01/16 01:56:24;;;;;;;14.60;7.90;;;;;;;3.10;95.65;97780.86;79683;1292;3013815;-69
2024/01/16 01:58:53;;;;;;;21.00;9.00;;;;;;;2.92;96.80;97772.35;79808;1294;3011829;-66
2024/01/16 02:01:21;;;;;;;59.10;21.70;;;;;;;3.25;96.54;97768.20;78406;1297;3051907;-63
2024/01/16 02:03:49;;;;;;;71.50;25.00;;;;;;;3.57;94.21;97754.58;79543;1298;3019114;-66
2024/01/16 02:06:16;;;;;;;62.90;25.80;;;;;;;3.57;93.09;97754.05;79610;1293;3011834;-68
2024/01/16 02:08:44;;;;;;;37.70;16.80;;;;;;;3.33;93.64;97753.73;78627;1294;3057021;-71
2024/01/16 02:11:11;;;;;;;28.00;12.20;;;;;;;3.22;94.25;97753.88;79671;1294;3013355;-66
2024/01/16 02:13:37;;;;;;;19.70;9.90;;;;;;;2.94;95.20;97743.36;79557;1292;3011700;-66
2024/01/16 02:16:05;;;;;;;19.60;7.10;;;;;;;2.78;96.18;97741.48;78457;1296;3026464;-65
2024/01/16 02:18:32;;;;;;;15.60;6.60;;;;;;;3.19;95.61;97727.76;79710;1292;3020769;-68
2024/01/16 02:21:03;;;;;;;13.20;6.50;;;;;;;3.46;93.46;97721.83;79636;1294;3011868;-67
2024/01/16 02:23:31;;;;;;;16.10;7.60;;;;;;;3.36;93.02;97721.22;78584;1292;3055453;-70
2024/01/16 02:25:57;;;;;;;18.00;7.60;;;;;;;3.29;93.25;97712.60;79707;1292;3013799;-68
2024/01/16 02:28:24;;;;;;;17.50;7.30;;;;;;;3.15;93.50;97709.26;79586;1292;3011672;-68
2024/01/16 02:30:52;;;;;;;13.20;6.00;;;;;;;2.88;94.95;97703.90;78449;1295;3025856;-71
2024/01/16 02:33:18;;;;;;;12.60;5.30;;;;;;;2.68;96.65;97697.94;79787;1297;3013113;-67
2024/01/16 02:35:45;;;;;;;8.90;5.30;;;;;;;3.14;95.95;97690.31;79785;1292;3011601;-68
2024/01/16 02:38:12;;;;;;;12.20;5.60;;;;;;;3.63;93.66;97679.75;78612;1292;3028055;-67
2024/01/16 02:40:40;;;;;;;10.00;5.10;;;;;;;3.37;92.93;97684.81;79705;1293;3014721;-67
2024/01/16 02:43:07;;;;;;;13.20;6.00;;;;;;;3.20;94.40;97682.48;79698;1292;3011575;-69
2024/01/16 02:45:34;;;;;;;11.80;6.20;;;;;;;3.14;94.33;97676.08;78258;1298;3052473;-64
2024/01/16 02:48:03;;;;;;;13.80;6.20;;;;;;;3.08;94.57;97661.04;79753;1297;3013020;-66
2024/01/16 02:50:30;;;;;;;9.50;6.00;;;;;;;2.84;95.43;97658.50;79753;1292;3012760;-65
2024/01/16 02:52:58;;;;;;;8.90;5.30;;;;;;;2.55;97.24;97662.23;78471;1293;3057069;-66
2024/01/16 02:55:24;;;;;;;12.80;4.70;;;;;;;3.03;96.81;97657.86;79749;1294;3013231;-66
2024/01/16 02:57:51;;;;;;;8.80;4.90;;;;;;;3.13;95.34;97656.63;79517;1297;3011407;-63
2024/01/16 03:00:19;;;;;;;12.70;5.10;;;;;;;3.11;94.91;97647.88;78507;1297;3028239;-65
2024/01/16 03:02:45;;;;;;;12.10;5.40;;;;;;;3.20;94.13;97639.77;79680;1294;3012872;-66
2024/01/16 03:05:12;;;;;;;10.50;4.60;;;;;;;2.93;94.35;97636.55;79743;1293;3013168;-68
2024/01/16 03:07:41;;;;;;;10.20;5.80;;;;;;;2.65;95.58;97637.42;78358;1292;3026614;-67
2024/01/16 03:10:07;;;;;;;8.70;4.50;;;;;;;2.68;96.27;97631.91;79647;1292;3013014;-68
2024/01/16 03:12:34;;;;;;;7.50;4.20;;;;;;;2.93;95.60;97630.44;79608;1292;3011571;-67
2024/01/16 03:15:02;;;;;;;7.30;4.20;;;;;;;3.20;93.61;97627.98;78622;1298;3052267;-68
2024/01/16 03:17:29;;;;;;;8.90;5.10;;;;;;;3.29;92.27;97619.87;79721;1294;3011666;-68
2024/01/16 03:19:56;;;;;;;7.80;4.50;;;;;;;3.31;92.30;97609.68;79676;1294;3011550;-67
2024/01/16 03:22:25;;;;;;;7.80;4.50;;;;;;;3.30;91.51;97601.79;78481;1295;3057101;-69
2024/01/16 03:24:52;;;;;;;11.00;5.10;;;;;;;3.14;91.91;97603.27;79792;1294;3013055;-68
2024/01/16 03:27:18;;;;;;;13.00;5.80;;;;;;;2.99;92.39;97612.82;79641;1294;3011488;-70
2024/01/16 03:29:46;;;;;;;10.70;4.20;;;;;;;2.77;93.59;97604.41;78474;1298;3051444;-68
2024/01/16 03:32:12;;;;;;;9.70;3.70;;;;;;;3.14;92.77;97606.74;79649;1297;3013372;-65
2024/01/16 03:34:40;;;;;;;8.40;3.90;;;;;;;3.36;91.12;97604.05;79618;1298;3011585;-66
2024/01/16 03:37:08;;;;;;;8.60;3.50;;;;;;;3.47;90.53;97599.01;78476;1298;3055428;-66
2024/01/16 03:39:34;;;;;;;8.40;4.30;;;;;;;3.37;90.37;97595.46;79667;1294;3013660;-68
2024/01/16 03:42:01;;;;;;;8.70;4.30;;;;;;;3.07;91.02;97594.88;79663;1294;3011664;-66
2024/01/16 03:44:30;;;;;;;8.50;4.20;;;;;;;3.13;91.41;97584.13;78530;1298;3028089;-66
2024/01/16 03:46:57;;;;;;;6.80;4.10;;;;;;;2.77;92.54;97583.12;79807;1298;3011636;-67
2024/01/16 03:49:24;;;;;;;5.80;3.60;;;;;;;2.87;93.18;97577.73;79633;1292;3011597;-68
2024/01/16 03:51:54;;;;;;;5.30;3.20;;;;;;;3.32;91.97;97569.33;78412;1294;3056333;-66
2024/01/16 03:54:20;;;;;;;7.40;4.40;;;;;;;3.77;89.53;97564.64;79531;1292;3011645;-68
2024/01/16 03:56:47;;;;;;;9.20;4.00;;;;;;;3.83;88.86;97572.37;79628;1294;3012065;-61
2024/01/16 03:59:15;;;;;;;10.40;4.00;;;;;;;3.44;90.22;97570.13;78535;1298;3052529;-66
2024/01/16 04:01:43;;;;;;;9.20;4.10;;;;;;;3.24;91.13;97564.45;79770;1298;3013695;-66
2024/01/16 04:04:11;;;;;;;10.10;4.40;;;;;;;3.13;92.18;97553.52;79702;1292;3013076;-67
2024/01/16 04:06:39;;;;;;;14.10;4.70;;;;;;;2.89;93.35;97551.35;78648;1298;3057035;-64
2024/01/16 04:09:05;;;;;;;7.40;3.40;;;;;;;2.86;94.01;97545.96;79714;1294;3013080;-70
2024/01/16 04:11:32;;;;;;;12.50;4.40;;;;;;;3.10;93.34;97548.66;79664;1293;3011462;-65
2024/01/16 04:14:00;;;;;;;8.00;3.20;;;;;;;3.39;91.80;97545.67;78488;1294;3027173;-65
2024/01/16 04:16:26;;;;;;;13.50;4.10;;;;;;;3.26;91.50;97538.73;79740;1297;3013346;-68
2024/01/16 04:18:53;;;;;;;8.60;3.90;;;;;;;3.06;92.74;97538.90;79703;1298;3013621;-67
2024/01/16 04:21:21;;;;;;;9.60;4.60;;;;;;;3.10;92.95;97538.84;78384;1292;3026473;-65
2024/01/16 04:23:47;;;;;;;7.90;4.00;;;;;;;2.91;93.45;97531.83;79843;1292;3018690;-67
2024/01/16 04:26:14;;;;;;;7.10;4.00;;;;;;;2.78;94.09;97520.36;79683;1292;3011752;-70
2024/01/16 04:28:42;;;;;;;9.30;3.50;;;;;;;2.77;94.45;97520.55;78363;1298;3025968;-67
2024/01/16 04:31:11;;;;;;;7.40;3.30;;;;;;;3.19;93.82;97524.09;79671;1298;3013177;-66
2024/01/16 04:33:40;;;;;;;8.10;3.50;;;;;;;3.35;92.10;97513.27;79140;1294;3011647;-65
2024/01/16 04:36:07;;;;;;;11.40;3.70;;;;;;;3.45;91.44;97510.02;79694;1294;3013004;-67
2024/01/16 04:38:33;;;;;;;7.90;3.60;;;;;;;3.16;92.14;97510.09;79726;1294;3011489;-67
2024/01/16 04:41:04;;;;;;;9.50;3.80;;;;;;;3.12;92.79;97500.80;78646;1301;3027318;-63
2024/01/16 04:43:30;;;;;;;10.80;4.40;;;;;;;2.86;93.96;97499.42;79860;1294;3011645;-68
2024/01/16 04:45:59;;;;;;;10.50;3.80;;;;;;;2.84;94.37;97496.30;79101;1298;3011755;-67
2024/01/16 04:48:26;;;;;;;7.90;3.30;;;;;;;3.22;93.68;97492.77;79502;1293;3018373;-65
2024/01/16 04:50:52;;;;;;;8.40;3.50;;;;;;;3.38;92.10;97493.17;79503;1292;3011510;-68
2024/01/16 04:53:20;;;;;;;9.30;3.80;;;;;;;3.51;91.01;97490.40;78388;1294;3026798;-66
2024/01/16 04:55:46;;;;;;;13.30;4.40;;;;;;;3.45;90.86;97485.92;79606;1292;3013330;-64
2024/01/16 04:58:13;;;;;;;12.80;4.20;;;;;;;3.09;91.74;97489.55;79620;1292;3011694;-65
2024/01/16 05:00:41;;;;;;;9.90;4.40;;;;;;;2.93;93.09;97488.48;78371;1298;3026489;-67
2024/01/16 05:03:07;;;;;;;8.00;3.70;;;;;;;2.93;93.41;97487.42;79685;1297;3011607;-63
2024/01/16 05:05:34;;;;;;;12.20;4.60;;;;;;;2.80;94.04;97487.52;79654;1293;3013264;-65
2024/01/16 05:08:02;;;;;;;10.80;3.90;;;;;;;3.28;92.79;97490.11;78462;1292;3026595;-65
2024/01/16 05:10:30;;;;;;;9.50;3.90;;;;;;;3.61;90.68;97491.71;79595;1294;3013891;-66
2024/01/16 05:12:57;;;;;;;12.00;4.20;;;;;;;3.65;90.05;97491.23;79612;1293;3011881;-65
2024/01/16 05:15:24;;;;;;;10.70;4.00;;;;;;;3.29;90.90;97495.27;78520;1294;3051139;-67
2024/01/16 05:17:51;;;;;;;10.30;4.20;;;;;;;3.13;91.94;97493.84;79700;1298;3013246;-70
2024/01/16 05:20:17;;;;;;;12.90;4.60;;;;;;;3.04;92.39;97494.20;79678;1292;3011497;-66
2024/01/16 05:22:46;;;;;;;8.90;3.90;;;;;;;2.96;93.07;97489.48;78469;1293;3025632;-66
2024/01/16 05:25:12;;;;;;;9.80;4.00;;;;;;;2.89;93.19;97487.52;79694;1293;3012775;-66
2024/01/16 05:27:39;;;;;;;8.30;3.70;;;;;;;3.21;92.69;97488.98;79747;1295;3011930;-67
2024/01/16 05:30:07;;;;;;;7.90;3.60;;;;;;;3.57;91.15;97481.42;78520;1298;3052409;-69
2024/01/16 05:32:35;;;;;;;10.80;4.60;;;;;;;3.49;90.93;97479.16;79680;1297;3013287;-69
2024/01/16 05:35:02;;;;;;;11.90;4.10;;;;;;;3.55;90.93;97477.21;79585;1293;3011653;-67
2024/01/16 05:37:31;;;;;;;12.90;5.50;;;;;;;3.44;91.69;97473.94;78470;1297;3055568;-66
2024/01/16 05:39:57;;;;;;;17.30;6.00;;;;;;;3.26;92.13;97476.92;79695;1294;3013720;-67
2024/01/16 05:42:24;;;;;;;16.20;5.70;;;;;;;2.92;94.19;97478.48;79682;1294;3011989;-66
2024/01/16 05:44:53;;;;;;;16.10;6.80;;;;;;;3.22;94.90;97471.15;78424;1294;3028093;-68
2024/01/16 05:47:24;;;;;;;16.60;6.20;;;;;;;3.55;92.81;97467.00;79824;1292;3011726;-66
2024/01/16 05:49:51;;;;;;;15.50;6.70;;;;;;;3.41;93.16;97469.96;78474;1298;3069649;-69
2024/01/16 05:52:18;;;;;;;17.30;7.00;;;;;;;3.32;93.57;97464.63;79685;1297;3013302;-69
2024/01/16 05:54:44;;;;;;;21.40;9.10;;;;;;;3.13;94.95;97469.27;79799;1295;3011922;-67
2024/01/16 05:57:12;;;;;;;32.70;13.10;;;;;;;3.03;95.86;97472.29;78428;1294;3026678;-66
2024/01/16 05:59:39;;;;;;;25.50;9.90;;;;;;;2.98;96.68;97466.23;79601;1297;3013345;-68
2024/01/16 06:02:05;;;;;;;27.40;10.50;;;;;;;3.31;96.33;97465.36;79633;1298;3013045;-67
2024/01/16 06:04:33;;;;;;;34.80;13.00;;;;;;;3.63;94.29;97461.98;78398;1292;3028800;-69
2024/01/16 06:07:00;;;;;;;39.10;14.50;;;;;;;3.79;93.49;97456.12;79672;1294;3013815;-70
2024/01/16 06:09:26;;;;;;;63.70;22.30;;;;;;;3.56;93.95;97458.60;79782;1293;3011509;-69
2024/01/16 06:11:54;;;;;;;47.40;17.60;;;;;;;3.38;94.53;97457.86;78323;1297;3026048;-72
2024/01/16 06:14:21;;;;;;;59.30;21.50;;;;;;;3.33;95.44;97451.94;79772;1297;3011671;-68
2024/01/16 06:16:48;;;;;;;61.00;21.90;;;;;;;3.05;96.51;97452.12;79798;1294;3013428;-66
2024/01/16 06:19:16;;;;;;;27.80;9.90;;;;;;;3.10;97.54;97446.25;78333;1295;3026947;-64
2024/01/16 06:21:43;;;;;;;24.00;9.10;;;;;;;3.59;95.95;97435.23;79702;1295;3018591;-68
2024/01/16 06:24:11;;;;;;;15.00;6.90;;;;;;;3.57;95.14;97438.50;79660;1300;3011305;-69
2024/01/16 06:26:39;;;;;;;10.20;5.20;;;;;;;3.68;94.68;97435.68;78353;1299;3052959;-67
2024/01/16 06:29:06;;;;;;;8.80;4.70;;;;;;;3.80;94.00;97437.00;79693;1298;3012679;-67
2024/01/16 06:31:32;;;;;;;12.60;5.10;;;;;;;3.55;94.22;97428.02;79677;1298;3013202;-67
2024/01/16 06:34:02;;;;;;;12.20;5.50;;;;;;;3.58;93.77;97431.27;78411;1299;3029092;-68
2024/01/16 06:36:29;;;;;;;9.80;4.00;;;;;;;3.41;94.33;97436.39;79665;1295;3011607;-67
2024/01/16 06:38:56;;;;;;;11.90;4.50;;;;;;;3.53;94.94;97429.70;79693;1292;3013313;-67
2024/01/16 06:41:24;;;;;;;6.90;3.60;;;;;;;3.92;93.23;97433.75;78291;1297;3053776;-68
2024/01/16 06:43:50;;;;;;;6.20;3.40;;;;;;;4.03;92.63;97428.36;79689;1297;3019265;-70
2024/01/16 06:46:17;;;;;;;7.40;4.00;;;;;;;3.51;93.84;97436.02;79640;1298;3013365;-66
2024/01/16 06:48:45;;;;;;;9.90;4.80;;;;;;;3.52;95.11;97417.11;78501;1298;3026069;-68
2024/01/16 06:51:13;;;;;;;10.00;5.70;;;;;;;3.50;94.53;97418.67;79685;1297;3013586;-67
2024/01/16 06:53:40;;;;;;;7.10;3.70;;;;;;;3.37;94.66;97415.52;79715;1295;3011584;-65
2024/01/16 06:56:08;;;;;;;8.20;3.50;;;;;;;3.67;93.38;97423.65;78439;1298;3053993;-70
2024/01/16 06:58:35;;;;;;;9.80;5.30;;;;;;;3.68;92.32;97420.27;79736;1295;3012872;-68
2024/01/16 07:01:03;;;;;;;10.60;5.50;;;;;;;4.03;92.28;97411.20;79628;1299;3011927;-67
2024/01/16 07:03:31;;;;;;;12.70;5.70;;;;;;;3.99;90.31;97403.36;78635;1298;3068405;-63
2024/01/16 07:05:57;;;;;;;10.50;5.50;;;;;;;3.86;91.38;97406.30;79687;1292;3013028;-67
2024/01/16 07:08:24;;;;;;;11.50;4.50;;;;;;;3.83;90.66;97409.03;79818;1295;3013444;-67
2024/01/16 07:10:52;;;;;;;11.40;5.60;;;;;;;3.50;91.59;97408.09;78502;1295;3026226;-65
2024/01/16 07:13:19;;;;;;;5.40;2.90;;;;;;;3.44;92.15;97407.23;79750;1297;3013628;-68
2024/01/16 07:15:46;;;;;;;7.60;4.20;;;;;;;3.66;91.64;97401.84;79603;1298;3011624;-67
2024/01/16 07:18:14;;;;;;;8.00;4.00;;;;;;;4.12;90.36;97402.98;78484;1295;3068785;-67
2024/01/16 07:20:40;;;;;;;7.50;4.20;;;;;;;4.08;89.24;97399.27;79711;1295;3014712;-68
2024/01/16 07:23:08;;;;;;;9.00;5.40;;;;;;;4.09;89.13;97398.89;79547;1292;3011900;-69
2024/01/16 07:25:36;;;;;;;8.50;4.40;;;;;;;3.93;89.05;97397.46;78434;1295;3053138;-67
2024/01/16 07:28:03;;;;;;;9.50;5.30;;;;;;;3.63;89.54;97402.56;79803;1298;3020719;-68
2024/01/16 07:30:29;;;;;;;8.00;4.90;;;;;;;3.41;90.39;97406.44;79672;1298;3011880;-69
2024/01/16 07:32:57;;;;;;;8.50;4.60;;;;;;;3.24;90.98;97418.42;78413;1293;3028344;-71
2024/01/16 07:35:25;;;;;;;9.00;3.70;;;;;;;3.11;91.84;97420.08;79711;1292;3012749;-67
2024/01/16 07:37:52;;;;;;;5.10;3.00;;;;;;;3.60;90.25;97418.52;79756;1292;3013540;-66
2024/01/16 07:40:20;;;;;;;7.10;4.00;;;;;;;3.95;87.82;97417.14;78526;1298;3053886;-68
2024/01/16 07:42:47;;;;;;;9.30;4.50;;;;;;;3.73;87.62;97418.94;79788;1298;3013076;-66
2024/01/16 07:45:13;;;;;;;7.30;4.40;;;;;;;3.48;88.16;97401.48;79756;1306;3011330;-68
2024/01/16 07:47:41;;;;;;;9.50;5.10;;;;;;;3.63;88.26;97407.45;78379;1301;3026110;-68
2024/01/16 07:50:08;;;;;;;8.80;5.10;;;;;;;3.46;87.78;97423.61;79759;1299;3013591;-65
2024/01/16 07:52:35;;;;;;;9.30;5.70;;;;;;;3.05;89.01;97427.02;79737;1300;3013529;-69
2024/01/16 07:55:03;;;;;;;8.30;4.60;;;;;;;2.85;90.23;97435.33;78506;1299;3025276;-66
2024/01/16 07:57:30;;;;;;;8.80;4.00;;;;;;;3.19;89.88;97434.28;79787;1298;3013549;-67
2024/01/16 07:59:58;;;;;;;8.00;4.10;;;;;;;3.94;87.01;97433.63;79716;1298;3011370;-66
2024/01/16 08:02:32;;;;;;;5.60;3.70;;;;;;;3.68;86.73;97420.91;78403;1298;3068382;-65
2024/01/16 08:05:01;;;;;;;4.90;3.90;;;;;;;3.73;86.53;97418.22;79177;1295;3011932;-66
2024/01/16 08:07:28;;;;;;;6.50;4.30;;;;;;;3.47;86.80;97424.59;79909;1294;3020996;-67
2024/01/16 08:09:54;;;;;;;7.30;4.30;;;;;;;3.18;87.75;97430.03;79846;1293;3011839;-67
2024/01/16 08:12:22;;;;;;;5.50;3.10;;;;;;;2.96;88.49;97437.63;78461;1297;3026818;-69
2024/01/16 08:14:49;;;;;;;10.00;6.00;;;;;;;3.03;87.50;97435.61;79735;1298;3013142;-67
2024/01/16 08:17:15;;;;;;;13.20;6.90;;;;;;;2.63;89.26;97442.20;79826;1294;3012088;-68
2024/01/16 08:19:43;;;;;;;11.40;6.20;;;;;;;2.82;88.26;97439.20;78610;1298;3028122;-67
2024/01/16 08:22:10;;;;;;;10.40;5.90;;;;;;;3.48;86.97;97440.08;79744;1297;3018932;-66
2024/01/16 08:24:36;;;;;;;8.80;5.10;;;;;;;3.83;84.92;97433.52;79794;1294;3011846;-65
2024/01/16 08:27:04;;;;;;;6.60;4.00;;;;;;;3.72;84.49;97426.95;78491;1300;3027877;-68
2024/01/16 08:29:31;;;;;;;7.60;4.50;;;;;;;3.61;84.45;97422.95;79703;1298;3012982;-65
2024/01/16 08:31:57;;;;;;;6.30;4.00;;;;;;;3.41;84.30;97428.56;79642;1295;3011492;-66
2024/01/16 08:34:26;;;;;;;6.40;3.30;;;;;;;2.95;85.37;97429.17;78464;1298;3028140;-68
2024/01/16 08:36:56;;;;;;;8.50;4.60;;;;;;;2.73;86.45;97437.84;79707;1294;3013424;-66
2024/01/16 08:39:24;;;;;;;11.20;6.20;;;;;;;2.54;86.87;97449.48;78553;1299;3048872;-68
2024/01/16 08:41:51;;;;;;;10.60;5.80;;;;;;;2.26;87.96;97453.22;79836;1297;3013581;-67
2024/01/16 08:44:17;;;;;;;5.70;3.50;;;;;;;2.03;88.95;97452.65;79582;1299;3012592;-70
2024/01/16 08:46:46;;;;;;;6.90;3.40;;;;;;;2.41;88.45;97466.49;78478;1307;3025871;-65
2024/01/16 08:49:13;;;;;;;7.00;4.40;;;;;;;2.71;87.01;97470.75;80264;1298;3013130;-66
2024/01/16 08:51:41;;;;;;;6.30;4.20;;;;;;;2.91;85.86;97466.11;79622;1294;3011566;-73
2024/01/16 08:54:08;;;;;;;6.60;4.00;;;;;;;2.61;85.99;97463.80;78508;1297;3048078;-70
2024/01/16 08:56:35;;;;;;;8.40;5.40;;;;;;;2.35;86.59;97457.20;79595;1300;3012923;-70
2024/01/16 08:59:02;;;;;;;11.50;5.50;;;;;;;1.98;87.43;97462.64;79865;1294;3011348;-66
2024/01/16 09:01:30;;;;;;;11.30;6.50;;;;;;;1.87;87.93;97474.80;78444;1308;3025845;-69
2024/01/16 09:03:57;;;;;;;9.90;6.30;;;;;;;1.67;88.33;97479.07;79592;1300;3013172;-74
2024/01/16 09:06:23;;;;;;;9.10;5.70;;;;;;;1.53;88.86;97478.83;79570;1300;3011305;-70
2024/01/16 09:08:51;;;;;;;10.10;6.50;;;;;;;1.43;89.19;97480.88;78373;1298;3026803;-67
2024/01/16 09:11:17;;;;;;;6.70;4.30;;;;;;;1.41;89.20;97493.77;80262;1299;3013817;-67
2024/01/16 09:13:44;;;;;;;6.60;4.60;;;;;;;1.90;88.82;97489.66;79634;1301;3013604;-71
2024/01/16 09:16:12;;;;;;;7.50;5.00;;;;;;;2.28;86.51;97489.90;78333;1295;3025634;-66
2024/01/16 09:18:38;;;;;;;9.40;5.70;;;;;;;2.30;85.76;97497.27;79482;1294;3012944;-67
2024/01/16 09:21:05;;;;;;;8.60;5.90;;;;;;;2.32;85.39;97500.70;79881;1298;3011522;-67
2024/01/16 09:23:33;;;;;;;10.20;6.70;;;;;;;1.82;86.24;97493.44;78699;1295;3025950;-68
2024/01/16 09:26:00;;;;;;;10.30;7.10;;;;;;;1.73;86.66;97501.67;79691;1298;3018380;-68
2024/01/16 09:28:28;;;;;;;11.00;7.10;;;;;;;1.52;87.93;97510.23;79831;1296;3011877;-65
2024/01/16 09:30:56;;;;;;;11.80;7.60;;;;;;;1.31;89.12;97511.93;78657;1300;3051905;-69
2024/01/16 09:33:23;;;;;;;12.40;7.80;;;;;;;1.19;89.49;97522.21;79630;1300;3013074;-63
2024/01/16 09:35:49;;;;;;;9.20;6.40;;;;;;;1.09;90.42;97523.08;79664;1300;3011787;-69
2024/01/16 09:38:17;;;;;;;7.90;5.90;;;;;;;1.60;89.65;97523.94;78286;1300;3027556;-64
2024/01/16 09:40:44;;;;;;;10.20;6.80;;;;;;;2.16;87.32;97516.71;79631;1298;3018966;-67
2024/01/16 09:43:11;;;;;;;10.50;7.20;;;;;;;2.24;86.44;97525.90;79611;1308;3013848;-69
2024/01/16 09:45:39;;;;;;;10.10;6.90;;;;;;;2.04;86.28;97536.52;78311;1300;3025268;-66
2024/01/16 09:48:07;;;;;;;9.90;7.00;;;;;;;1.77;86.75;97545.81;79451;1299;3012882;-69
2024/01/16 09:50:34;;;;;;;10.50;7.40;;;;;;;1.52;87.57;97540.61;79495;1296;3011923;-67
2024/01/16 09:53:03;;;;;;;12.40;8.30;;;;;;;1.41;88.11;97547.43;78477;1300;3048873;-65
2024/01/16 09:55:31;;;;;;;11.50;7.60;;;;;;;1.36;88.17;97552.73;79728;1295;3013440;-67
2024/01/16 09:57:57;;;;;;;11.80;6.80;;;;;;;1.12;89.06;97565.35;79822;1300;3011692;-70
2024/01/16 10:00:25;;;;;;;8.50;5.80;;;;;;;1.02;90.57;97580.86;78260;1301;3050675;-71
2024/01/16 10:02:52;;;;;;;9.00;5.60;;;;;;;1.55;89.38;97581.53;79917;1296;3018522;-64
2024/01/16 10:05:19;;;;;;;9.30;6.00;;;;;;;1.89;87.45;97569.84;79580;1296;3011876;-67
2024/01/16 10:07:47;;;;;;;9.00;6.10;;;;;;;1.86;86.73;97573.80;78335;1298;3026015;-72
2024/01/16 10:10:14;;;;;;;10.80;6.20;;;;;;;1.62;86.66;97582.19;79859;1299;3013526;-70
2024/01/16 10:12:40;;;;;;;11.00;6.50;;;;;;;1.44;87.68;97582.11;79580;1294;3011469;-70
2024/01/16 10:15:08;;;;;;;11.30;6.70;;;;;;;1.37;88.07;97582.34;78518;1300;3051899;-70
2024/01/16 10:17:39;;;;;;;11.20;7.60;;;;;;;1.25;88.05;97589.13;79742;1300;3013728;-67
2024/01/16 10:20:12;;;;;;;8.20;5.90;;;;;;;1.20;87.98;97576.66;78415;1298;3056674;-66
2024/01/16 10:22:40;;;;;;;8.20;5.30;;;;;;;1.29;88.06;97589.12;80206;1296;3013236;-66
2024/01/16 10:25:09;;;;;;;7.10;4.80;;;;;;;1.74;87.38;97589.95;78843;1301;3053888;-66
2024/01/16 10:27:37;;;;;;;7.70;5.80;;;;;;;1.97;85.79;97595.99;79735;1301;3013431;-67
2024/01/16 10:30:06;;;;;;;6.20;4.30;;;;;;;1.94;85.41;97607.02;79004;1304;3011642;-67
2024/01/16 10:32:38;;;;;;;8.70;5.30;;;;;;;1.63;86.10;97595.79;79607;1299;3013162;-66
2024/01/16 10:35:13;;;;;;;7.50;5.20;;;;;;;1.55;86.47;97587.38;78333;1303;3068087;-66
2024/01/16 10:37:45;;;;;;;8.40;5.90;;;;;;;1.34;86.96;97585.06;79005;1297;3011462;-73
2024/01/16 10:40:19;;;;;;;13.80;6.60;;;;;;;1.13;88.17;97577.52;79482;1302;3011513;-70
2024/01/16 10:42:57;;;;;;;12.00;7.20;;;;;;;1.17;88.10;97584.74;78282;1303;3056575;-67
2024/01/16 10:45:26;;;;;;;8.50;5.60;;;;;;;1.01;88.57;97587.29;78329;1301;3049383;-67
2024/01/16 10:48:06;;;;;;;9.80;5.40;;;;;;;1.80;87.47;97584.98;79445;1302;3013056;-68
2024/01/16 10:50:37;;;;;;;12.50;6.40;;;;;;;2.28;84.53;97578.54;78398;1301;3051460;-66
2024/01/16 10:53:05;;;;;;;10.30;5.50;;;;;;;2.09;84.21;97575.48;79611;1301;3012824;-69
2024/01/16 10:55:44;;;;;;;10.00;6.60;;;;;;;1.92;84.66;97585.59;78430;1302;3067833;-67
2024/01/16 10:58:12;;;;;;;7.10;5.30;;;;;;;1.74;84.76;97572.56;78232;1303;3051055;-68
2024/01/16 11:00:39;;;;;;;10.20;6.10;;;;;;;1.53;85.32;97577.85;79690;1302;3014681;-69
2024/01/16 11:03:10;;;;;;;9.40;5.80;;;;;;;1.36;85.48;97590.98;79512;1299;3013003;-69
2024/01/16 11:05:38;;;;;;;10.80;6.60;;;;;;;1.27;86.01;97596.82;78128;1307;3049339;-67
2024/01/16 11:08:05;;;;;;;8.80;5.80;;;;;;;1.27;85.73;97619.75;79619;1306;3012649;-70
2024/01/16 11:10:35;;;;;;;9.50;5.60;;;;;;;1.27;86.48;97625.59;79338;1311;3013421;-68
2024/01/16 11:13:03;;;;;;;10.00;5.70;;;;;;;1.89;86.03;97628.54;78449;1301;3051942;-66
2024/01/16 11:15:31;;;;;;;10.70;6.20;;;;;;;2.42;83.47;97632.36;79806;1298;3011701;-68
2024/01/16 11:17:59;;;;;;;10.50;6.80;;;;;;;2.40;82.53;97635.91;79810;1304;3011427;-73
2024/01/16 11:20:27;;;;;;;12.20;6.70;;;;;;;2.10;82.80;97640.36;78381;1298;3049486;-68